createdAt,value
2022-11-29T00:01:26.142Z,22.42
2022-11-29T00:03:59.702Z,21.20
2022-11-29T00:09:45.158Z,22.17
2022-11-29T00:12:18.290Z,21.17
2022-11-29T00:14:51.249Z,20.63
2022-11-29T00:19:58.410Z,19.95
2022-11-29T00:25:04.780Z,19.52
2022-11-29T00:27:37.531Z,19.13
2022-11-29T00:30:11.594Z,22.15
2022-11-29T00:32:45.799Z,20.90
2022-11-29T00:35:18.909Z,21.30
2022-11-29T00:37:51.741Z,18.17
2022-11-29T00:40:24.913Z,22.92
2022-11-29T00:42:57.789Z,21.48
2022-11-29T00:48:05.277Z,19.75
2022-11-29T00:50:38.236Z,20.08
2022-11-29T00:55:45.144Z,19.08
2022-11-29T00:58:18.420Z,19.05
2022-11-29T01:00:51.978Z,18.05
2022-11-29T01:03:26.796Z,19.70
2022-11-29T01:06:02.685Z,20.58
2022-11-29T01:08:36.059Z,18.45
2022-11-29T01:11:13.746Z,18.73
2022-11-29T01:13:47.224Z,19.92
2022-11-29T01:16:20.425Z,20.73
2022-11-29T01:18:55.023Z,22.75
2022-11-29T01:21:28.489Z,19.88
2022-11-29T01:24:03.658Z,19.92
2022-11-29T01:26:39.428Z,19.02
2022-11-29T01:29:14.109Z,20.45
2022-11-29T01:31:47.059Z,20.52
2022-11-29T01:36:54.311Z,20.00
2022-11-29T01:39:27.285Z,18.83
2022-11-29T01:42:00.948Z,18.58
2022-11-29T01:45:03.825Z,20.08
2022-11-29T01:47:47.070Z,19.40
2022-11-29T01:52:54.602Z,19.15
2022-11-29T01:58:01.539Z,17.63
2022-11-29T02:00:34.667Z,18.58
2022-11-29T02:03:11.837Z,16.23
2022-11-29T02:05:50.358Z,18.58
2022-11-29T02:08:28.386Z,18.17
2022-11-29T02:11:20.142Z,15.95
2022-11-29T02:14:13.100Z,17.85
2022-11-29T02:16:56.857Z,17.52
2022-11-29T02:19:55.343Z,16.90
2022-11-29T02:22:43.986Z,15.13
2022-11-29T02:25:37.110Z,15.45
2022-11-29T02:28:42.975Z,16.65
2022-11-29T02:31:44.260Z,13.80
2022-11-29T02:34:44.613Z,14.30
2022-11-29T02:37:30.917Z,15.05
2022-11-29T02:40:33.616Z,13.88
2022-11-29T02:43:34.175Z,14.33
2022-11-29T02:46:22.182Z,13.63
2022-11-29T02:49:04.109Z,15.27
2022-11-29T02:51:44.164Z,14.27
2022-11-29T02:54:25.374Z,14.90
2022-11-29T02:57:03.385Z,13.55
2022-11-29T02:59:43.888Z,14.52
2022-11-29T03:02:24.467Z,13.50
2022-11-29T03:05:04.689Z,16.05
2022-11-29T03:07:45.856Z,14.07
2022-11-29T03:10:29.879Z,13.60
2022-11-29T03:13:08.169Z,12.93
2022-11-29T03:15:49.814Z,14.45
2022-11-29T03:18:35.518Z,13.52
2022-11-29T03:21:24.488Z,13.65
2022-11-29T03:24:06.196Z,14.02
2022-11-29T03:26:45.488Z,13.32
2022-11-29T03:29:28.366Z,14.15
2022-11-29T03:32:08.306Z,13.52
2022-11-29T03:34:57.411Z,13.68
2022-11-29T03:37:39.342Z,14.75
2022-11-29T03:40:20.716Z,12.73
2022-11-29T03:43:02.923Z,13.02
2022-11-29T03:45:44.816Z,12.63
2022-11-29T03:48:22.955Z,12.32
2022-11-29T03:51:00.728Z,13.20
2022-11-29T03:53:40.671Z,12.50
2022-11-29T03:56:37.817Z,12.93
2022-11-29T03:59:20.564Z,12.45
2022-11-29T04:02:14.155Z,11.95
2022-11-29T04:05:15.607Z,13.38
2022-11-29T04:08:03.012Z,13.85
2022-11-29T04:10:53.594Z,13.63
2022-11-29T04:13:47.684Z,13.18
2022-11-29T04:16:47.201Z,12.40
2022-11-29T04:19:40.839Z,13.13
2022-11-29T04:22:33.110Z,12.77
2022-11-29T04:25:32.828Z,13.57
2022-11-29T04:28:20.800Z,13.35
2022-11-29T04:31:08.403Z,13.45
2022-11-29T04:34:18.835Z,12.48
2022-11-29T04:37:11.777Z,12.40
2022-11-29T04:39:58.817Z,14.52
2022-11-29T04:42:56.577Z,13.73
2022-11-29T04:45:48.959Z,13.20
2022-11-29T04:48:43.938Z,13.68
2022-11-29T04:51:27.111Z,13.90
2022-11-29T04:56:44.977Z,14.93
2022-11-29T04:59:25.998Z,13.77
2022-11-29T05:02:06.638Z,12.52
2022-11-29T05:04:52.607Z,12.55
2022-11-29T05:07:34.121Z,14.23
2022-11-29T05:10:23.821Z,13.88
2022-11-29T05:13:03.813Z,13.15
2022-11-29T05:15:53.619Z,13.75
2022-11-29T05:18:37.452Z,12.85
2022-11-29T05:21:20.666Z,12.85
2022-11-29T05:24:00.956Z,12.45
2022-11-29T05:26:42.378Z,13.95
2022-11-29T05:29:22.728Z,10.57
2022-11-29T05:32:10.845Z,12.05
2022-11-29T05:35:00.860Z,11.55
2022-11-29T05:37:44.646Z,11.88
2022-11-29T05:40:39.885Z,12.23
2022-11-29T05:43:26.623Z,13.15
2022-11-29T05:46:07.147Z,11.38
2022-11-29T05:48:48.776Z,11.23
2022-11-29T05:51:28.622Z,12.00
2022-11-29T05:54:13.004Z,11.20
2022-11-29T05:56:58.008Z,11.60
2022-11-29T05:59:32.391Z,11.50
2022-11-29T06:02:15.583Z,11.63
2022-11-29T06:07:45.622Z,11.98
2022-11-29T06:10:24.252Z,11.93
2022-11-29T06:13:07.284Z,10.63
2022-11-29T06:16:16.877Z,10.68
2022-11-29T06:19:17.379Z,10.55
2022-11-29T06:22:00.733Z,10.93
2022-11-29T06:24:45.833Z,10.13
2022-11-29T06:27:37.246Z,10.77
2022-11-29T06:30:13.230Z,9.52
2022-11-29T06:32:53.475Z,9.43
2022-11-29T06:35:39.826Z,10.63
2022-11-29T06:38:23.199Z,11.23
2022-11-29T06:41:02.075Z,9.68
2022-11-29T06:43:37.534Z,11.52
2022-11-29T06:46:19.981Z,10.60
2022-11-29T06:49:02.340Z,6.63
2022-11-29T06:51:46.275Z,9.50
2022-11-29T06:54:32.050Z,8.55
2022-11-29T06:57:14.396Z,8.45
2022-11-29T07:00:02.513Z,10.40
2022-11-29T07:02:49.546Z,9.60
2022-11-29T07:05:26.792Z,9.88
2022-11-29T07:08:03.861Z,10.20
2022-11-29T07:10:40.901Z,9.55
2022-11-29T07:13:14.857Z,11.00
2022-11-29T07:16:00.632Z,9.75
2022-11-29T07:18:43.302Z,10.52
2022-11-29T07:21:26.711Z,7.78
2022-11-29T07:24:09.778Z,9.90
2022-11-29T07:26:56.492Z,10.32
2022-11-29T07:29:39.352Z,10.45
2022-11-29T07:32:21.983Z,10.93
2022-11-29T07:35:02.884Z,10.55
2022-11-29T07:37:41.043Z,9.63
2022-11-29T07:40:16.814Z,9.00
2022-11-29T07:43:02.385Z,9.07
2022-11-29T07:45:36.834Z,9.15
2022-11-29T07:48:12.262Z,9.27
2022-11-29T07:50:46.352Z,9.30
2022-11-29T07:53:21.690Z,11.13
2022-11-29T07:55:54.595Z,9.68
2022-11-29T08:00:59.929Z,9.43
2022-11-29T08:03:35.540Z,9.70
2022-11-29T08:06:08.227Z,9.60
2022-11-29T08:08:44.202Z,10.00
2022-11-29T08:11:17.403Z,8.90
2022-11-29T08:13:51.423Z,9.15
2022-11-29T08:16:24.568Z,9.02
2022-11-29T08:18:58.973Z,9.27
2022-11-29T08:21:31.776Z,9.32
2022-11-29T08:24:04.676Z,9.90
2022-11-29T08:26:37.524Z,20.65
2022-11-29T08:29:10.325Z,13.50
2022-11-29T08:31:43.113Z,15.38
2022-11-29T08:34:17.510Z,15.80
2022-11-29T08:36:50.861Z,16.58
2022-11-29T08:39:24.180Z,16.00
2022-11-29T08:41:56.895Z,15.10
2022-11-29T08:44:29.750Z,16.05
2022-11-29T08:50:03.323Z,15.30
2022-11-29T08:55:33.424Z,15.05
2022-11-29T08:58:09.841Z,15.18
2022-11-29T09:00:46.046Z,16.88
2022-11-29T09:03:36.800Z,18.33
2022-11-29T09:06:13.441Z,17.88
2022-11-29T09:08:46.955Z,16.75
2022-11-29T09:11:25.992Z,16.17
2022-11-29T09:14:01.248Z,17.33
2022-11-29T09:16:37.642Z,16.13
2022-11-29T09:19:11.615Z,18.02
2022-11-29T09:21:45.813Z,17.85
2022-11-29T09:24:19.654Z,17.27
2022-11-29T09:26:52.448Z,16.80
2022-11-29T09:29:25.161Z,16.83
2022-11-29T09:31:58.111Z,18.35
2022-11-29T09:37:06.170Z,17.80
2022-11-29T09:39:40.225Z,16.50
2022-11-29T09:42:44.866Z,16.00
2022-11-29T09:45:22.145Z,16.33
2022-11-29T09:48:23.028Z,17.55
2022-11-29T09:51:01.734Z,17.23
2022-11-29T09:53:46.248Z,16.15
2022-11-29T09:56:26.314Z,16.77
2022-11-29T09:59:04.722Z,16.45
2022-11-29T10:01:43.699Z,15.57
2022-11-29T10:04:20.553Z,18.02
2022-11-29T10:07:00.316Z,16.90
2022-11-29T10:09:39.985Z,16.60
2022-11-29T10:12:18.547Z,16.17
2022-11-29T10:14:56.469Z,17.50
2022-11-29T10:17:36.052Z,15.73
2022-11-29T10:20:15.925Z,17.48
2022-11-29T10:22:55.811Z,22.38
2022-11-29T10:25:34.264Z,17.27
2022-11-29T10:28:12.727Z,15.93
2022-11-29T10:30:46.234Z,18.55
2022-11-29T10:33:22.349Z,18.13
2022-11-29T10:35:58.166Z,20.15
2022-11-29T10:38:31.929Z,19.33
2022-11-29T10:41:12.237Z,21.00
2022-11-29T10:43:45.403Z,20.85
2022-11-29T10:46:29.885Z,20.92
2022-11-29T10:49:05.709Z,19.83
2022-11-29T10:51:39.166Z,21.85
2022-11-29T10:54:30.233Z,19.00
2022-11-29T10:57:13.851Z,21.60
2022-11-29T11:00:00.802Z,20.58
2022-11-29T11:02:34.541Z,23.63
2022-11-29T11:05:18.835Z,20.73
2022-11-29T11:07:58.610Z,22.20
2022-11-29T11:10:32.292Z,22.73
2022-11-29T11:13:08.347Z,22.38
2022-11-29T11:15:41.328Z,19.27
2022-11-29T11:20:58.234Z,23.85
2022-11-29T11:23:32.649Z,23.58
2022-11-29T11:26:11.363Z,23.50
2022-11-29T11:28:52.270Z,22.52
2022-11-29T11:31:34.390Z,21.55
2022-11-29T11:34:26.907Z,21.80
2022-11-29T11:37:19.761Z,25.43
2022-11-29T11:39:55.938Z,20.38
2022-11-29T11:42:40.386Z,22.05
2022-11-29T11:45:33.946Z,19.85
2022-11-29T11:48:14.492Z,19.85
2022-11-29T11:50:52.975Z,23.67
2022-11-29T11:53:29.041Z,22.48
2022-11-29T11:56:03.743Z,21.30
2022-11-29T11:58:40.492Z,24.98
2022-11-29T12:01:27.266Z,32.75
2022-11-29T12:04:05.441Z,35.22
2022-11-29T12:06:46.210Z,38.67
2022-11-29T12:09:28.999Z,49.40
2022-11-29T12:12:11.926Z,40.50
2022-11-29T12:14:55.637Z,39.88
2022-11-29T12:17:36.207Z,42.67
2022-11-29T12:20:23.688Z,34.33
2022-11-29T12:23:10.122Z,29.50
2022-11-29T12:25:49.723Z,37.85
2022-11-29T12:28:26.112Z,35.35
2022-11-29T12:31:08.819Z,37.35
2022-11-29T12:33:50.959Z,38.45
2022-11-29T12:36:37.848Z,42.58
2022-11-29T12:39:25.401Z,50.58
2022-11-29T12:42:07.188Z,52.53
2022-11-29T12:44:47.700Z,49.55
2022-11-29T12:47:37.704Z,46.63
2022-11-29T12:50:27.441Z,47.85
2022-11-29T12:53:15.449Z,41.67
2022-11-29T12:55:55.685Z,35.13
2022-11-29T12:58:39.056Z,32.25
2022-11-29T13:01:25.469Z,38.22
2022-11-29T13:04:05.138Z,30.65
2022-11-29T13:06:49.058Z,32.95
2022-11-29T13:09:49.298Z,33.08
2022-11-29T13:12:29.408Z,30.90
2022-11-29T13:15:06.333Z,32.55
2022-11-29T13:17:46.808Z,39.58
2022-11-29T13:20:32.176Z,30.02
2022-11-29T13:23:20.762Z,24.60
2022-11-29T13:25:58.224Z,26.10
2022-11-29T13:28:34.867Z,29.30
2022-11-29T13:31:15.604Z,27.55
2022-11-29T13:34:08.793Z,25.05
2022-11-29T13:36:51.043Z,31.92
2022-11-29T13:39:36.095Z,28.40
2022-11-29T13:42:17.277Z,30.38
2022-11-29T13:44:57.676Z,25.63
2022-11-29T13:47:30.570Z,24.58
2022-11-29T13:50:05.671Z,24.33
2022-11-29T13:52:41.248Z,22.20
2022-11-29T13:55:29.164Z,22.50
2022-11-29T13:58:22.226Z,24.52
2022-11-29T14:01:00.214Z,23.35
2022-11-29T14:03:37.128Z,21.90
2022-11-29T14:06:21.120Z,29.42
2022-11-29T14:09:28.307Z,26.23
2022-11-29T14:12:20.080Z,20.85
2022-11-29T14:14:57.867Z,22.67
2022-11-29T14:17:37.140Z,23.27
2022-11-29T14:20:58.267Z,20.85
2022-11-29T14:23:50.079Z,17.83
2022-11-29T14:26:32.398Z,21.05
2022-11-29T14:29:48.131Z,18.77
2022-11-29T14:32:23.691Z,16.25
2022-11-29T14:35:03.463Z,15.93
2022-11-29T14:37:53.664Z,15.77
2022-11-29T14:40:37.005Z,18.83
2022-11-29T14:43:21.951Z,17.55
2022-11-29T14:46:24.711Z,17.70
2022-11-29T14:49:04.084Z,16.00
2022-11-29T14:51:37.516Z,16.80
2022-11-29T14:54:18.354Z,14.70
2022-11-29T14:56:51.308Z,15.05
2022-11-29T15:02:35.970Z,15.30
2022-11-29T15:05:17.210Z,13.98
2022-11-29T15:07:57.882Z,16.83
2022-11-29T15:10:34.698Z,15.88
2022-11-29T15:13:10.829Z,19.17
2022-11-29T15:16:04.285Z,20.65
2022-11-29T15:19:17.686Z,15.60
2022-11-29T15:21:59.183Z,16.98
2022-11-29T15:24:51.149Z,24.10
2022-11-29T15:27:27.198Z,14.80
2022-11-29T15:30:10.098Z,19.10
2022-11-29T15:32:45.682Z,15.90
2022-11-29T15:35:21.049Z,16.65
2022-11-29T15:38:00.180Z,16.95
2022-11-29T15:40:43.344Z,15.77
2022-11-29T15:43:28.656Z,15.77
2022-11-29T15:46:02.242Z,17.80
2022-11-29T15:48:35.911Z,11.63
2022-11-29T15:51:30.422Z,12.55
2022-11-29T15:54:23.444Z,11.73
2022-11-29T15:57:03.955Z,11.88
2022-11-29T15:59:49.209Z,16.55
2022-11-29T16:02:28.061Z,9.77
2022-11-29T16:05:12.719Z,13.35
2022-11-29T16:07:51.094Z,12.27
2022-11-29T16:10:35.198Z,9.65
2022-11-29T16:13:37.173Z,9.25
2022-11-29T16:16:18.021Z,10.68
2022-11-29T16:18:52.365Z,10.18
2022-11-29T16:21:33.583Z,8.93
2022-11-29T16:24:23.421Z,8.90
2022-11-29T16:27:02.300Z,9.70
2022-11-29T16:29:45.153Z,9.55
2022-11-29T16:32:27.679Z,8.35
2022-11-29T16:35:08.412Z,10.50
2022-11-29T16:38:10.704Z,9.73
2022-11-29T16:41:04.863Z,7.30
2022-11-29T16:43:58.336Z,9.48
2022-11-29T16:46:40.853Z,8.25
2022-11-29T16:49:33.875Z,7.53
2022-11-29T16:52:43.421Z,8.25
2022-11-29T16:55:20.422Z,8.63
2022-11-29T16:57:57.145Z,9.05
2022-11-29T17:00:34.488Z,8.73
2022-11-29T17:03:07.669Z,10.77
2022-11-29T17:05:51.655Z,10.85
2022-11-29T17:08:25.850Z,7.50
2022-11-29T17:10:59.249Z,9.18
2022-11-29T17:13:34.799Z,8.68
2022-11-29T17:16:44.014Z,8.50
2022-11-29T17:19:24.031Z,8.77
2022-11-29T17:21:57.126Z,9.77
2022-11-29T17:27:05.289Z,8.87
2022-11-29T17:29:42.238Z,9.73
2022-11-29T17:32:26.458Z,7.82
2022-11-29T17:35:00.107Z,8.63
2022-11-29T17:37:33.686Z,9.15
2022-11-29T17:40:08.015Z,8.07
2022-11-29T17:42:41.284Z,14.15
2022-11-29T17:45:15.878Z,9.38
2022-11-29T17:47:51.620Z,7.93
2022-11-29T17:50:24.587Z,9.07
2022-11-29T17:55:30.401Z,8.80
2022-11-29T18:00:37.621Z,15.63
2022-11-29T18:03:10.951Z,29.35
2022-11-29T18:05:49.570Z,18.00
2022-11-29T18:08:22.891Z,16.30
2022-11-29T18:11:05.452Z,17.65
2022-11-29T18:13:38.888Z,12.70
2022-11-29T18:16:14.769Z,18.45
2022-11-29T18:18:48.308Z,15.95
2022-11-29T18:21:21.345Z,19.02
2022-11-29T18:23:55.099Z,16.00
2022-11-29T18:26:30.524Z,15.57
2022-11-29T18:29:03.687Z,17.92
2022-11-29T18:31:41.136Z,13.40
2022-11-29T18:34:15.525Z,20.27
2022-11-29T18:36:49.692Z,15.02
2022-11-29T18:39:27.201Z,14.52
2022-11-29T18:42:01.188Z,14.82
2022-11-29T18:44:34.639Z,15.23
2022-11-29T18:47:11.084Z,13.07
2022-11-29T18:49:44.428Z,12.18
2022-11-29T18:52:17.360Z,14.18
2022-11-29T18:54:52.033Z,13.73
2022-11-29T18:57:25.223Z,17.17
2022-11-29T18:59:58.637Z,16.58
2022-11-29T19:02:33.132Z,14.23
2022-11-29T19:05:06.650Z,13.70
2022-11-29T19:07:39.890Z,14.68
2022-11-29T19:10:13.961Z,16.17
2022-11-29T19:12:47.351Z,12.77
2022-11-29T19:15:20.689Z,13.82
2022-11-29T19:17:56.004Z,12.68
2022-11-29T19:20:29.216Z,11.90
2022-11-29T19:23:02.369Z,14.68
2022-11-29T19:25:36.630Z,15.05
2022-11-29T19:28:14.253Z,11.60
2022-11-29T19:30:56.179Z,10.00
2022-11-29T19:33:30.709Z,11.75
2022-11-29T19:36:08.645Z,13.98
2022-11-29T19:38:42.003Z,12.57
2022-11-29T19:41:16.725Z,10.23
2022-11-29T19:43:50.166Z,11.30
2022-11-29T19:46:25.161Z,13.23
2022-11-29T19:49:00.925Z,14.70
2022-11-29T19:51:34.524Z,12.90
2022-11-29T19:54:10.651Z,16.80
2022-11-29T19:56:50.825Z,11.98
2022-11-29T19:59:31.499Z,12.65
2022-11-29T20:02:08.670Z,13.98
2022-11-29T20:04:43.616Z,12.75
2022-11-29T20:07:17.372Z,14.38
2022-11-29T20:09:50.800Z,12.95
2022-11-29T20:15:01.127Z,14.38
2022-11-29T20:17:34.640Z,15.00
2022-11-29T20:20:11.525Z,16.48
2022-11-29T20:22:46.411Z,12.90
2022-11-29T20:25:24.820Z,11.95
2022-11-29T20:27:58.353Z,12.70
2022-11-29T20:34:53.741Z,13.20
2022-11-29T20:37:52.279Z,13.25
2022-11-29T20:40:33.397Z,13.38
2022-11-29T20:43:17.432Z,12.23
2022-11-29T20:45:51.174Z,16.88
2022-11-29T20:48:24.664Z,14.00
2022-11-29T20:51:03.591Z,14.80
2022-11-29T20:53:42.688Z,13.60
2022-11-29T20:56:15.944Z,15.65
2022-11-29T20:58:48.929Z,15.30
2022-11-29T21:01:22.751Z,16.50
2022-11-29T21:03:59.165Z,12.98
2022-11-29T21:06:34.570Z,14.05
2022-11-29T21:09:09.319Z,14.75
2022-11-29T21:11:45.880Z,11.57
2022-11-29T21:14:19.572Z,11.68
2022-11-29T21:16:53.742Z,13.13
2022-11-29T21:19:28.136Z,12.85
2022-11-29T21:22:09.469Z,14.48
2022-11-29T21:24:51.679Z,12.45
2022-11-29T21:27:30.097Z,13.57
2022-11-29T21:30:06.555Z,13.63
2022-11-29T21:32:40.187Z,11.20
2022-11-29T21:35:13.175Z,13.23
2022-11-29T21:37:46.409Z,12.00
2022-11-29T21:40:21.097Z,12.38
2022-11-29T21:42:54.478Z,12.70
2022-11-29T21:45:27.367Z,11.20
2022-11-29T21:50:33.223Z,14.57
2022-11-29T21:53:06.317Z,12.82
2022-11-29T21:58:13.301Z,14.77
2022-11-29T22:00:46.141Z,11.18
2022-11-29T22:05:52.096Z,13.00
2022-11-29T22:08:24.834Z,13.05
2022-11-29T22:11:03.621Z,12.63
2022-11-29T22:13:36.776Z,13.32
2022-11-29T22:16:11.430Z,11.35
2022-11-29T22:18:44.827Z,11.43
2022-11-29T22:21:17.724Z,13.60
2022-11-29T22:26:24.880Z,11.53
2022-11-29T22:28:58.224Z,12.10
2022-11-29T22:31:31.452Z,12.90
2022-11-29T22:34:04.439Z,12.18
2022-11-29T22:36:38.827Z,12.57
2022-11-29T22:39:12.157Z,11.18
2022-11-29T22:41:52.296Z,13.10
2022-11-29T22:44:26.974Z,12.98
2022-11-29T22:49:33.548Z,11.20
2022-11-29T22:52:06.652Z,12.57
2022-11-29T22:54:40.294Z,12.95
2022-11-29T22:57:14.528Z,12.60
2022-11-29T22:59:48.059Z,11.50
2022-11-29T23:02:21.128Z,11.65
2022-11-29T23:04:54.252Z,12.07
2022-11-29T23:07:27.304Z,9.82
2022-11-29T23:10:00.695Z,11.90
2022-11-29T23:12:35.472Z,11.90
2022-11-29T23:15:08.754Z,11.35
2022-11-29T23:17:41.991Z,12.02
2022-11-29T23:20:15.230Z,12.23
2022-11-29T23:22:48.469Z,11.30
2022-11-29T23:25:24.087Z,14.45
2022-11-29T23:27:58.409Z,9.75
2022-11-29T23:30:31.760Z,11.93
2022-11-29T23:33:04.669Z,12.43
2022-11-29T23:38:11.370Z,10.07
2022-11-29T23:40:45.938Z,13.10
2022-11-29T23:43:21.701Z,11.48
2022-11-29T23:45:54.827Z,10.63
2022-11-29T23:48:28.006Z,12.65
2022-11-29T23:51:00.991Z,10.55
2022-11-29T23:56:09.131Z,10.10
2022-11-29T23:58:43.781Z,9.18
